North, North Carolina
Current Conditions -  °F | °C
As of 9:54 PM on Saturday 20 Dec 2014 (Local Time) from KINT Reporting Station
Overcast Overcast  
Wind Chill: 38°   Ceiling: 2500
Heat Index: 38°   Visibility: 8mi
Dew Point: 33°   Wind: 0mph
Humidity: 83%   Direction: NA
Pressure: 30.26"   Gusts: NA
Location:  36.165°N, 80.2349°W
Report Text: KINT 210254Z 00000KT 8SM OVC025 03/01 A3026 RMK AO2 SLP252 T00330006 51005
Loading
Personal Weather Stations






























Interactive Weather Map New forecast layout! Learn more

10-Day Weather Forecast

Advertisements
Track Severe Weather on mobile